Time;durP1;ratioP1;P1;durP2;ratioP2;P2;SDS_P1;SDS_P2;PMS_P1;PMS_P2;Temp;Humidity;BMP_temperature;BMP_pressure;BME280_temperature;BME280_humidity;BME280_pressure;Samples;Min_cycle;Max_cycle;Signal;HPM_P1;HPM_P2
2021/07/18 00:01:27;;;;;;;10.80;5.47;;;;;;;;;;5013250;28;20449;-56
2021/07/18 00:03:56;;;;;;;9.47;5.47;;;;;;;;;;5013539;28;20442;-56
2021/07/18 00:06:23;;;;;;;6.60;5.13;;;;;;;;;;5013441;28;20500;-56
2021/07/18 00:08:50;;;;;;;9.37;5.00;;;;;;;;;;5013475;28;20864;-56
2021/07/18 00:11:17;;;;;;;9.10;5.53;;;;;;;;;;5013352;28;20970;-56
2021/07/18 00:13:45;;;;;;;10.50;5.07;;;;;;;;;;5013294;28;20478;-56
2021/07/18 00:16:12;;;;;;;7.20;5.70;;;;;;;;;;5013360;28;20494;-56
2021/07/18 00:18:39;;;;;;;7.93;5.43;;;;;;;;;;5013257;28;20515;-55
2021/07/18 00:21:08;;;;;;;6.93;6.17;;;;;;;;;;5014911;28;20481;-55
2021/07/18 00:23:35;;;;;;;9.40;5.43;;;;;;;;;;5014749;28;20515;-55
2021/07/18 00:26:02;;;;;;;10.13;7.03;;;;;;;;;;5017499;28;20856;-55
2021/07/18 00:28:29;;;;;;;9.77;7.20;;;;;;;;;;5016966;28;20504;-55
2021/07/18 00:30:56;;;;;;;13.30;8.33;;;;;;;;;;5017172;28;20466;-55
2021/07/18 00:33:24;;;;;;;12.20;7.47;;;;;;;;;;5017065;28;21074;-55
2021/07/18 00:35:51;;;;;;;13.43;6.90;;;;;;;;;;5017215;28;20441;-56
2021/07/18 00:38:20;;;;;;;10.63;7.87;;;;;;;;;;5017203;28;20857;-55
2021/07/18 00:40:47;;;;;;;9.07;6.77;;;;;;;;;;5017194;28;20507;-55
2021/07/18 00:43:15;;;;;;;9.87;7.27;;;;;;;;;;5016942;28;20952;-55
2021/07/18 00:45:42;;;;;;;11.90;7.27;;;;;;;;;;5017061;28;20497;-55
2021/07/18 00:48:09;;;;;;;10.80;6.60;;;;;;;;;;5016962;28;20462;-55
2021/07/18 00:50:37;;;;;;;14.80;7.57;;;;;;;;;;5016577;28;20515;-55
2021/07/18 00:53:04;;;;;;;16.60;8.80;;;;;;;;;;5016741;28;20481;-55
2021/07/18 00:55:33;;;;;;;8.90;8.00;;;;;;;;;;5016570;28;20504;-55
2021/07/18 00:58:00;;;;;;;13.80;8.30;;;;;;;;;;5017407;28;20441;-56
2021/07/18 01:00:27;;;;;;;12.80;8.90;;;;;;;;;;5016379;28;20466;-56
2021/07/18 01:02:55;;;;;;;13.17;9.03;;;;;;;;;;5016790;28;20504;-56
2021/07/18 01:05:24;;;;;;;10.47;8.17;;;;;;;;;;5016753;28;20445;-56
2021/07/18 01:07:52;;;;;;;17.37;8.87;;;;;;;;;;5016642;28;20453;-56
2021/07/18 01:10:19;;;;;;;14.23;9.97;;;;;;;;;;5016484;28;20470;-56
2021/07/18 01:12:48;;;;;;;14.57;10.10;;;;;;;;;;5016193;28;20481;-56
2021/07/18 01:15:16;;;;;;;13.10;9.40;;;;;;;;;;5016578;28;20504;-56
2021/07/18 01:17:43;;;;;;;12.60;8.97;;;;;;;;;;5016218;28;20446;-56
2021/07/18 01:20:11;;;;;;;9.70;8.17;;;;;;;;;;5015932;28;20481;-57
2021/07/18 01:22:40;;;;;;;19.13;9.20;;;;;;;;;;5016446;28;20445;-56
2021/07/18 01:25:08;;;;;;;8.93;8.00;;;;;;;;;;5015910;28;21004;-56
2021/07/18 01:27:35;;;;;;;13.63;8.67;;;;;;;;;;5016874;28;20531;-55
2021/07/18 01:30:04;;;;;;;11.83;9.00;;;;;;;;;;5016004;28;21044;-55
2021/07/18 01:32:31;;;;;;;14.53;8.07;;;;;;;;;;5016125;28;20446;-55
2021/07/18 01:34:58;;;;;;;12.53;8.93;;;;;;;;;;5015371;28;20489;-55
2021/07/18 01:37:25;;;;;;;13.63;9.47;;;;;;;;;;5015907;28;20853;-55
2021/07/18 01:39:54;;;;;;;11.43;8.73;;;;;;;;;;5016448;28;20500;-55
2021/07/18 01:42:24;;;;;;;13.07;8.93;;;;;;;;;;5015638;28;20995;-55
2021/07/18 01:44:51;;;;;;;23.70;9.73;;;;;;;;;;5015924;28;20438;-55
2021/07/18 01:47:18;;;;;;;13.93;10.03;;;;;;;;;;5015632;28;20508;-55
2021/07/18 01:49:45;;;;;;;10.83;9.70;;;;;;;;;;5015429;28;20974;-54
2021/07/18 01:52:12;;;;;;;11.77;9.57;;;;;;;;;;5016125;28;20848;-55
2021/07/18 01:54:40;;;;;;;13.43;9.10;;;;;;;;;;5015880;28;20470;-57
2021/07/18 01:57:13;;;;;;;12.73;8.50;;;;;;;;;;5015720;28;20503;-56
2021/07/18 01:59:40;;;;;;;13.63;9.47;;;;;;;;;;5015588;28;20872;-57
2021/07/18 02:02:08;;;;;;;13.80;9.77;;;;;;;;;;5015258;28;20446;-56
2021/07/18 02:04:35;;;;;;;16.07;9.23;;;;;;;;;;5015243;28;20504;-56
2021/07/18 02:07:03;;;;;;;13.93;9.20;;;;;;;;;;5015180;28;20445;-57
2021/07/18 02:09:30;;;;;;;15.80;9.30;;;;;;;;;;5015392;28;20462;-57
2021/07/18 02:11:57;;;;;;;16.60;9.50;;;;;;;;;;5015407;28;20500;-56
2021/07/18 02:14:27;;;;;;;13.73;8.53;;;;;;;;;;5015214;28;20532;-56
2021/07/18 02:16:55;;;;;;;16.53;10.13;;;;;;;;;;5015427;28;20502;-56
2021/07/18 02:19:22;;;;;;;13.70;10.10;;;;;;;;;;5014811;28;20499;-56
2021/07/18 02:21:49;;;;;;;10.90;8.20;;;;;;;;;;5015180;28;20438;-56
2021/07/18 02:24:16;;;;;;;16.20;8.50;;;;;;;;;;5015133;28;20852;-56
2021/07/18 02:26:44;;;;;;;9.70;8.70;;;;;;;;;;5015106;28;20496;-56
2021/07/18 02:29:11;;;;;;;13.30;9.97;;;;;;;;;;5015064;28;20442;-57
2021/07/18 02:31:40;;;;;;;13.20;9.57;;;;;;;;;;5014776;28;20861;-56
2021/07/18 02:34:07;;;;;;;11.30;8.80;;;;;;;;;;5014930;28;20845;-57
2021/07/18 02:36:35;;;;;;;13.60;8.13;;;;;;;;;;5014665;28;20996;-56
2021/07/18 02:39:02;;;;;;;14.63;9.23;;;;;;;;;;5015164;28;20446;-56
2021/07/18 02:41:30;;;;;;;11.80;9.03;;;;;;;;;;5014649;28;20500;-58
2021/07/18 02:43:57;;;;;;;12.53;8.87;;;;;;;;;;5015111;28;20449;-57
2021/07/18 02:46:24;;;;;;;10.93;8.63;;;;;;;;;;5014252;28;20450;-57
2021/07/18 02:48:53;;;;;;;12.50;8.70;;;;;;;;;;5014229;28;20500;-57
2021/07/18 02:51:20;;;;;;;9.13;7.70;;;;;;;;;;5014415;28;20474;-56
2021/07/18 02:53:47;;;;;;;12.97;8.20;;;;;;;;;;5014252;28;20478;-55
2021/07/18 02:56:15;;;;;;;12.83;8.30;;;;;;;;;;5014549;28;20504;-56
2021/07/18 02:58:42;;;;;;;12.33;8.20;;;;;;;;;;5014529;28;20868;-56
2021/07/18 03:01:09;;;;;;;12.07;9.27;;;;;;;;;;5014064;28;20466;-56
2021/07/18 03:03:36;;;;;;;10.80;9.30;;;;;;;;;;5014502;28;20450;-56
2021/07/18 03:06:05;;;;;;;12.57;8.40;;;;;;;;;;5014176;28;20500;-56
2021/07/18 03:08:32;;;;;;;14.40;9.00;;;;;;;;;;5014065;28;20500;-56
2021/07/18 03:10:59;;;;;;;14.57;7.73;;;;;;;;;;5014296;28;20466;-56
2021/07/18 03:13:27;;;;;;;16.70;8.57;;;;;;;;;;5013924;28;21008;-56
2021/07/18 03:15:54;;;;;;;13.20;9.13;;;;;;;;;;5013942;28;20450;-56
2021/07/18 03:18:21;;;;;;;10.00;8.97;;;;;;;;;;5014330;28;20454;-56
2021/07/18 03:20:48;;;;;;;10.10;8.50;;;;;;;;;;5013875;28;20993;-55
2021/07/18 03:23:17;;;;;;;13.10;7.97;;;;;;;;;;5014192;28;20453;-56
2021/07/18 03:25:44;;;;;;;8.90;8.00;;;;;;;;;;5013928;28;20446;-56
2021/07/18 03:28:11;;;;;;;10.47;8.77;;;;;;;;;;5013778;28;21000;-56
2021/07/18 03:30:39;;;;;;;9.90;8.60;;;;;;;;;;5013811;28;20470;-55
2021/07/18 03:33:06;;;;;;;17.80;9.23;;;;;;;;;;5013984;28;20858;-55
2021/07/18 03:35:33;;;;;;;11.13;7.90;;;;;;;;;;5013634;28;20478;-56
2021/07/18 03:38:00;;;;;;;10.83;7.73;;;;;;;;;;5013883;28;20501;-56
2021/07/18 03:40:29;;;;;;;11.43;8.70;;;;;;;;;;5013856;28;20560;-56
2021/07/18 03:42:56;;;;;;;10.43;8.40;;;;;;;;;;5013592;28;20538;-55
2021/07/18 03:45:24;;;;;;;11.03;8.00;;;;;;;;;;5013561;28;20445;-56
2021/07/18 03:47:52;;;;;;;15.53;8.80;;;;;;;;;;5013722;28;20572;-56
2021/07/18 03:50:19;;;;;;;11.73;9.00;;;;;;;;;;5013590;28;20469;-56
2021/07/18 03:52:47;;;;;;;14.60;8.80;;;;;;;;;;5013375;28;20450;-56
2021/07/18 03:55:15;;;;;;;11.60;7.80;;;;;;;;;;5013518;28;20548;-56
2021/07/18 03:57:44;;;;;;;12.70;7.83;;;;;;;;;;5013405;28;20504;-56
2021/07/18 04:00:11;;;;;;;12.13;8.20;;;;;;;;;;5013039;28;20466;-56
2021/07/18 04:02:38;;;;;;;11.07;8.10;;;;;;;;;;5013185;28;20461;-56
2021/07/18 04:08:21;;;;;;;11.03;8.57;;;;;;;;;;5091259;27;20541;-55
2021/07/18 04:10:48;;;;;;;11.80;8.80;;;;;;;;;;5090626;28;20467;-55
2021/07/18 04:13:15;;;;;;;12.13;8.63;;;;;;;;;;5090513;28;20929;-54
2021/07/18 04:15:42;;;;;;;12.27;8.57;;;;;;;;;;5090447;28;20438;-55
2021/07/18 04:18:10;;;;;;;11.67;8.13;;;;;;;;;;5090551;28;20500;-54
2021/07/18 04:20:38;;;;;;;10.77;8.23;;;;;;;;;;5090413;28;20462;-55
2021/07/18 04:23:05;;;;;;;11.27;8.30;;;;;;;;;;5090108;28;20438;-55
2021/07/18 04:25:34;;;;;;;12.00;7.67;;;;;;;;;;5090460;28;20446;-55
2021/07/18 04:28:01;;;;;;;11.40;7.57;;;;;;;;;;5090176;28;20474;-55
2021/07/18 04:30:28;;;;;;;11.00;8.53;;;;;;;;;;5090007;28;20978;-56
2021/07/18 04:32:55;;;;;;;12.00;9.03;;;;;;;;;;5090008;28;20857;-55
2021/07/18 04:35:23;;;;;;;13.83;8.80;;;;;;;;;;5090412;28;20442;-54
2021/07/18 04:37:50;;;;;;;9.70;7.17;;;;;;;;;;5090244;28;20504;-54
2021/07/18 04:40:17;;;;;;;13.70;9.67;;;;;;;;;;5090164;28;20812;-55
2021/07/18 04:42:46;;;;;;;12.87;8.20;;;;;;;;;;5089861;28;20860;-55
2021/07/18 04:45:13;;;;;;;9.80;7.77;;;;;;;;;;5090081;28;20442;-55
2021/07/18 04:47:44;;;;;;;12.80;7.10;;;;;;;;;;5090051;28;21042;-55
2021/07/18 04:50:12;;;;;;;9.50;8.27;;;;;;;;;;5089882;28;20546;-57
2021/07/18 04:52:39;;;;;;;9.63;8.23;;;;;;;;;;5089781;28;20850;-56
2021/07/18 04:55:07;;;;;;;12.70;8.30;;;;;;;;;;5089837;28;20492;-55
2021/07/18 04:57:34;;;;;;;10.93;8.10;;;;;;;;;;5090068;28;20435;-56
2021/07/18 05:00:03;;;;;;;14.57;10.03;;;;;;;;;;5090047;28;20558;-57
2021/07/18 05:02:31;;;;;;;12.23;9.50;;;;;;;;;;5089723;28;20997;-56
2021/07/18 05:04:58;;;;;;;15.00;10.70;;;;;;;;;;5089771;28;20496;-56
2021/07/18 05:07:25;;;;;;;13.50;10.17;;;;;;;;;;5089553;28;20551;-56
2021/07/18 05:09:52;;;;;;;12.90;10.70;;;;;;;;;;5089835;28;20503;-56
2021/07/18 05:12:20;;;;;;;13.20;10.40;;;;;;;;;;5089776;28;20480;-55
2021/07/18 05:14:47;;;;;;;17.07;10.90;;;;;;;;;;5089789;28;20446;-56
2021/07/18 05:17:15;;;;;;;12.60;9.57;;;;;;;;;;5089624;28;20438;-56
2021/07/18 05:19:43;;;;;;;14.47;10.47;;;;;;;;;;5075767;28;20463;-56
2021/07/18 05:22:12;;;;;;;12.30;10.50;;;;;;;;;;5076086;28;20470;-56
2021/07/18 05:24:39;;;;;;;14.73;12.07;;;;;;;;;;5075625;28;20444;-56
2021/07/18 05:27:07;;;;;;;17.40;11.17;;;;;;;;;;5075793;28;20888;-56
2021/07/18 05:29:34;;;;;;;16.77;10.73;;;;;;;;;;5075857;28;20518;-56
2021/07/18 05:32:01;;;;;;;15.00;10.60;;;;;;;;;;5075903;28;20443;-56
2021/07/18 05:34:32;;;;;;;16.13;11.07;;;;;;;;;;5075511;28;20443;-56
2021/07/18 05:36:59;;;;;;;18.97;11.57;;;;;;;;;;5075880;28;20424;-56
2021/07/18 05:39:26;;;;;;;16.67;11.87;;;;;;;;;;5075386;28;20871;-56
2021/07/18 05:41:55;;;;;;;16.40;11.80;;;;;;;;;;5075513;28;20451;-56
2021/07/18 05:44:23;;;;;;;17.03;11.50;;;;;;;;;;5075558;28;20479;-56
2021/07/18 05:46:50;;;;;;;17.60;12.10;;;;;;;;;;5075489;28;20545;-56
2021/07/18 05:49:17;;;;;;;20.20;13.93;;;;;;;;;;5075055;28;20447;-56
2021/07/18 05:51:46;;;;;;;17.13;12.93;;;;;;;;;;5075484;28;20442;-56
2021/07/18 05:54:13;;;;;;;14.33;11.30;;;;;;;;;;5075515;28;20489;-56
2021/07/18 05:56:40;;;;;;;14.20;10.43;;;;;;;;;;5075304;28;20440;-56
2021/07/18 05:59:07;;;;;;;11.40;10.27;;;;;;;;;;5075071;28;20447;-56
2021/07/18 06:01:35;;;;;;;11.73;10.27;;;;;;;;;;5075046;28;20439;-55
2021/07/18 06:04:02;;;;;;;18.23;10.30;;;;;;;;;;5075355;28;20443;-57
2021/07/18 06:06:29;;;;;;;11.17;9.20;;;;;;;;;;5075280;28;20464;-57
2021/07/18 06:08:58;;;;;;;11.10;8.77;;;;;;;;;;5075141;28;20447;-56
2021/07/18 06:11:26;;;;;;;12.13;8.77;;;;;;;;;;5075074;28;20463;-57
2021/07/18 06:13:53;;;;;;;10.47;7.60;;;;;;;;;;5074741;28;20525;-55
2021/07/18 06:16:21;;;;;;;12.70;8.37;;;;;;;;;;5075133;28;20439;-56
2021/07/18 06:18:48;;;;;;;13.10;8.23;;;;;;;;;;5074629;28;20807;-55
2021/07/18 06:21:15;;;;;;;9.87;7.43;;;;;;;;;;5075947;28;20472;-55
2021/07/18 06:23:43;;;;;;;13.70;8.43;;;;;;;;;;5074780;28;20447;-55
2021/07/18 06:26:12;;;;;;;10.20;7.90;;;;;;;;;;5074846;28;20458;-55
2021/07/18 06:28:39;;;;;;;10.27;7.40;;;;;;;;;;5074352;28;20479;-56
2021/07/18 06:31:07;;;;;;;12.60;8.70;;;;;;;;;;5073413;28;20551;-56
2021/07/18 06:33:34;;;;;;;14.20;7.27;;;;;;;;;;5074278;28;20943;-57
2021/07/18 06:36:01;;;;;;;11.07;7.80;;;;;;;;;;5074249;28;20858;-56
2021/07/18 06:38:28;;;;;;;7.87;7.07;;;;;;;;;;5074537;28;20484;-57
2021/07/18 06:40:56;;;;;;;9.70;7.00;;;;;;;;;;5074503;28;20474;-57
2021/07/18 06:43:24;;;;;;;8.50;6.57;;;;;;;;;;5074321;28;20907;-57
2021/07/18 06:45:52;;;;;;;11.27;6.97;;;;;;;;;;5074520;28;20450;-56
2021/07/18 06:48:19;;;;;;;9.10;6.60;;;;;;;;;;5074272;28;20474;-56
2021/07/18 06:50:46;;;;;;;9.60;6.17;;;;;;;;;;5074137;28;20541;-56
2021/07/18 06:53:13;;;;;;;8.70;6.83;;;;;;;;;;5073879;28;20893;-57
2021/07/18 06:55:41;;;;;;;9.17;6.60;;;;;;;;;;5073865;28;20443;-58
2021/07/18 06:58:08;;;;;;;13.53;7.50;;;;;;;;;;5073805;28;20440;-56
2021/07/18 07:00:37;;;;;;;9.27;6.53;;;;;;;;;;5073967;28;20470;-57
2021/07/18 07:03:04;;;;;;;8.20;7.27;;;;;;;;;;5073770;28;21005;-57
2021/07/18 07:05:31;;;;;;;9.37;6.80;;;;;;;;;;5073613;28;20877;-57
2021/07/18 07:07:59;;;;;;;13.03;7.67;;;;;;;;;;5073380;28;20484;-56
2021/07/18 07:10:26;;;;;;;11.40;6.97;;;;;;;;;;5073553;28;20464;-57
2021/07/18 07:12:53;;;;;;;9.23;7.40;;;;;;;;;;5073712;28;20493;-57
2021/07/18 07:15:20;;;;;;;7.63;6.67;;;;;;;;;;5073557;28;20448;-56
2021/07/18 07:17:49;;;;;;;9.23;7.40;;;;;;;;;;5073270;28;20436;-57
2021/07/18 07:20:16;;;;;;;9.03;6.17;;;;;;;;;;5073220;28;20475;-58
2021/07/18 07:22:43;;;;;;;9.00;6.60;;;;;;;;;;5073663;28;20842;-58
2021/07/18 07:25:13;;;;;;;7.90;6.93;;;;;;;;;;5073521;28;20796;-57
2021/07/18 07:27:40;;;;;;;8.43;6.50;;;;;;;;;;5073186;28;20911;-57
2021/07/18 07:30:09;;;;;;;6.83;5.67;;;;;;;;;;5073526;28;20455;-56
2021/07/18 07:32:36;;;;;;;8.20;5.33;;;;;;;;;;5073519;28;20445;-58
2021/07/18 07:35:05;;;;;;;7.90;5.47;;;;;;;;;;5073023;28;20452;-56
2021/07/18 07:37:34;;;;;;;6.80;5.50;;;;;;;;;;5073094;28;20444;-58
2021/07/18 07:40:02;;;;;;;5.87;5.27;;;;;;;;;;5072811;28;20499;-55
2021/07/18 07:42:29;;;;;;;8.40;4.63;;;;;;;;;;5072647;28;20459;-57
2021/07/18 07:44:57;;;;;;;8.17;5.20;;;;;;;;;;5072717;28;20509;-56
2021/07/18 07:47:24;;;;;;;7.03;5.47;;;;;;;;;;5072722;28;20478;-57
2021/07/18 07:49:51;;;;;;;8.07;5.40;;;;;;;;;;5072845;28;20517;-57
2021/07/18 07:52:20;;;;;;;7.57;5.63;;;;;;;;;;5073014;28;20869;-57
2021/07/18 07:54:47;;;;;;;11.23;5.50;;;;;;;;;;5072886;28;20443;-57
2021/07/18 07:57:14;;;;;;;11.27;6.13;;;;;;;;;;5073427;28;20454;-57
2021/07/18 07:59:42;;;;;;;6.50;5.30;;;;;;;;;;5072973;28;20467;-57
2021/07/18 08:02:09;;;;;;;11.50;6.70;;;;;;;;;;5073595;28;20457;-57
2021/07/18 08:04:36;;;;;;;7.97;6.10;;;;;;;;;;5073530;28;20448;-57
2021/07/18 08:07:04;;;;;;;8.90;6.23;;;;;;;;;;5072471;28;20869;-57
2021/07/18 08:09:33;;;;;;;8.43;5.73;;;;;;;;;;5072478;28;20468;-57
2021/07/18 08:12:00;;;;;;;6.30;5.70;;;;;;;;;;5072980;28;20867;-57
2021/07/18 08:14:27;;;;;;;7.20;5.40;;;;;;;;;;5072946;28;20439;-57
2021/07/18 08:16:54;;;;;;;7.50;6.40;;;;;;;;;;5072506;28;20770;-57
2021/07/18 08:19:22;;;;;;;8.23;5.40;;;;;;;;;;5072424;28;20441;-57
2021/07/18 08:21:49;;;;;;;7.00;5.60;;;;;;;;;;5072488;28;20457;-57
2021/07/18 08:24:16;;;;;;;9.20;6.17;;;;;;;;;;5072589;28;20502;-57
2021/07/18 08:26:45;;;;;;;7.60;5.67;;;;;;;;;;5072635;28;20451;-56
2021/07/18 08:29:12;;;;;;;7.73;5.00;;;;;;;;;;5072253;28;20483;-56
2021/07/18 08:31:39;;;;;;;6.40;5.77;;;;;;;;;;5072947;28;20447;-57
2021/07/18 08:34:06;;;;;;;7.63;6.33;;;;;;;;;;5072432;28;20506;-56
2021/07/18 08:36:33;;;;;;;6.53;5.50;;;;;;;;;;5072413;28;20559;-57
2021/07/18 08:39:01;;;;;;;5.47;5.00;;;;;;;;;;5072667;28;20442;-57
2021/07/18 08:41:28;;;;;;;6.07;5.47;;;;;;;;;;5072301;28;20444;-56
2021/07/18 08:43:57;;;;;;;7.30;5.80;;;;;;;;;;5072496;28;20462;-58
2021/07/18 08:46:24;;;;;;;5.50;5.00;;;;;;;;;;5072894;28;20533;-57
2021/07/18 08:48:51;;;;;;;6.60;5.90;;;;;;;;;;5072087;28;21007;-57
2021/07/18 08:51:19;;;;;;;7.43;6.63;;;;;;;;;;5072381;28;20464;-57
2021/07/18 08:53:46;;;;;;;6.40;5.77;;;;;;;;;;5074112;28;20441;-57
2021/07/18 08:56:13;;;;;;;6.23;5.07;;;;;;;;;;5076185;28;20458;-56
2021/07/18 08:58:41;;;;;;;6.57;5.87;;;;;;;;;;5076342;28;20445;-57
2021/07/18 09:01:12;;;;;;;6.87;6.13;;;;;;;;;;5076195;28;20556;-57
2021/07/18 09:03:40;;;;;;;7.23;6.33;;;;;;;;;;5076735;28;20431;-57
2021/07/18 09:06:08;;;;;;;5.50;5.00;;;;;;;;;;5075735;28;20495;-57
2021/07/18 09:08:41;;;;;;;7.27;5.90;;;;;;;;;;5075905;28;20908;-57
2021/07/18 09:11:16;;;;;;;6.40;5.20;;;;;;;;;;5075412;28;20561;-57
2021/07/18 09:13:45;;;;;;;6.80;5.23;;;;;;;;;;5076085;28;20440;-57
2021/07/18 09:16:14;;;;;;;7.63;6.40;;;;;;;;;;5075599;28;20465;-58
2021/07/18 09:18:41;;;;;;;8.70;6.43;;;;;;;;;;5075545;28;20496;-56
2021/07/18 09:21:08;;;;;;;7.60;5.53;;;;;;;;;;5075502;28;20469;-57
2021/07/18 09:23:35;;;;;;;8.10;6.07;;;;;;;;;;5075953;28;20444;-56
2021/07/18 09:26:22;;;;;;;7.30;6.37;;;;;;;;;;5075315;28;20484;-57
2021/07/18 09:28:49;;;;;;;6.30;5.70;;;;;;;;;;5075513;28;20473;-57
2021/07/18 09:31:31;;;;;;;7.30;6.00;;;;;;;;;;5075499;28;20836;-57
2021/07/18 09:34:11;;;;;;;6.30;5.70;;;;;;;;;;5075623;28;20453;-57
2021/07/18 09:36:38;;;;;;;5.60;5.20;;;;;;;;;;5075734;28;21045;-58
2021/07/18 09:39:06;;;;;;;5.60;4.73;;;;;;;;;;5076025;28;20500;-58
2021/07/18 09:41:35;;;;;;;6.30;4.80;;;;;;;;;;5075665;28;20446;-57
2021/07/18 09:44:02;;;;;;;7.00;6.40;;;;;;;;;;5075239;28;20509;-58
2021/07/18 09:46:36;;;;;;;5.80;5.20;;;;;;;;;;5075322;28;20508;-57
2021/07/18 09:49:04;;;;;;;5.93;5.20;;;;;;;;;;5075585;28;20550;-57
2021/07/18 09:51:32;;;;;;;5.90;5.37;;;;;;;;;;5075286;28;20442;-57
2021/07/18 09:54:09;;;;;;;5.90;5.30;;;;;;;;;;5075366;28;20450;-56
2021/07/18 09:56:36;;;;;;;5.33;4.93;;;;;;;;;;5075313;28;20450;-56
2021/07/18 09:59:04;;;;;;;5.30;4.73;;;;;;;;;;5075248;28;20444;-56
2021/07/18 10:01:33;;;;;;;5.50;5.00;;;;;;;;;;5075142;28;20447;-57
2021/07/18 10:04:02;;;;;;;5.20;4.80;;;;;;;;;;5074909;28;20439;-57
2021/07/18 10:06:30;;;;;;;6.30;4.73;;;;;;;;;;5075578;28;20467;-57
2021/07/18 10:08:58;;;;;;;6.80;5.20;;;;;;;;;;5075089;28;20483;-57
2021/07/18 10:11:26;;;;;;;5.23;4.73;;;;;;;;;;5074963;28;20887;-58
2021/07/18 10:13:54;;;;;;;5.20;4.80;;;;;;;;;;5074909;28;20451;-57
2021/07/18 10:16:22;;;;;;;6.07;5.47;;;;;;;;;;5074988;28;20450;-57
2021/07/18 10:18:50;;;;;;;5.57;5.07;;;;;;;;;;5075042;28;20535;-56
2021/07/18 10:21:20;;;;;;;5.83;5.33;;;;;;;;;;5075080;28;20528;-57
2021/07/18 10:23:48;;;;;;;5.60;5.10;;;;;;;;;;5074444;28;20448;-56
2021/07/18 10:26:16;;;;;;;5.90;4.23;;;;;;;;;;5074484;28;20478;-56
2021/07/18 10:28:44;;;;;;;5.07;4.57;;;;;;;;;;5074500;28;20475;-58
2021/07/18 10:31:13;;;;;;;5.20;4.37;;;;;;;;;;5074343;28;20541;-57
2021/07/18 10:33:41;;;;;;;5.23;4.73;;;;;;;;;;5074470;28;20508;-58
2021/07/18 10:36:09;;;;;;;5.20;4.80;;;;;;;;;;5074723;28;20595;-58
2021/07/18 10:38:37;;;;;;;5.70;5.20;;;;;;;;;;5073844;28;20923;-57
2021/07/18 10:41:05;;;;;;;5.77;5.27;;;;;;;;;;5073955;28;21021;-57
2021/07/18 10:43:36;;;;;;;6.20;5.10;;;;;;;;;;5074275;28;20493;-56
2021/07/18 10:46:03;;;;;;;5.13;4.70;;;;;;;;;;5073867;28;20950;-57
2021/07/18 10:48:41;;;;;;;5.80;5.10;;;;;;;;;;5073943;28;20529;-57
2021/07/18 10:51:08;;;;;;;5.40;4.90;;;;;;;;;;5073842;28;20566;-57
2021/07/18 10:53:36;;;;;;;6.00;4.70;;;;;;;;;;5074125;28;20449;-57
2021/07/18 10:56:07;;;;;;;6.30;4.90;;;;;;;;;;5073680;28;20497;-57
2021/07/18 10:58:45;;;;;;;7.07;4.50;;;;;;;;;;5073556;28;20508;-57
2021/07/18 11:01:27;;;;;;;5.83;5.30;;;;;;;;;;5073544;28;20474;-56
2021/07/18 11:03:54;;;;;;;5.80;4.90;;;;;;;;;;5073467;28;20500;-57
2021/07/18 11:06:22;;;;;;;6.93;5.07;;;;;;;;;;5073567;28;20462;-57
2021/07/18 11:09:08;;;;;;;6.93;4.60;;;;;;;;;;5073834;28;20459;-57
2021/07/18 11:11:39;;;;;;;5.50;5.00;;;;;;;;;;5073547;28;20458;-57
2021/07/18 11:14:22;;;;;;;5.07;4.67;;;;;;;;;;5073088;28;20487;-57
2021/07/18 11:16:51;;;;;;;4.70;4.30;;;;;;;;;;5072805;28;20455;-56
2021/07/18 11:19:33;;;;;;;4.43;4.03;;;;;;;;;;5072756;28;20801;-57
2021/07/18 11:22:00;;;;;;;5.13;4.50;;;;;;;;;;5073005;28;20443;-57
2021/07/18 11:24:42;;;;;;;5.10;4.63;;;;;;;;;;5073533;28;20505;-57
2021/07/18 11:27:24;;;;;;;4.80;4.37;;;;;;;;;;5073017;28;20501;-56
2021/07/18 11:29:51;;;;;;;5.97;4.87;;;;;;;;;;5073296;28;20552;-57
2021/07/18 11:32:21;;;;;;;4.20;3.90;;;;;;;;;;5073343;28;20449;-56
2021/07/18 11:34:49;;;;;;;5.23;4.00;;;;;;;;;;5072815;28;20443;-56
2021/07/18 11:37:16;;;;;;;4.63;4.23;;;;;;;;;;5073000;28;20505;-58
2021/07/18 11:39:44;;;;;;;5.90;4.07;;;;;;;;;;5073017;28;20459;-56
2021/07/18 11:42:12;;;;;;;5.83;4.10;;;;;;;;;;5072698;28;20531;-56
2021/07/18 11:44:42;;;;;;;5.00;4.60;;;;;;;;;;5073567;28;20445;-56
2021/07/18 11:47:11;;;;;;;4.73;4.43;;;;;;;;;;5073934;28;20510;-58
2021/07/18 11:49:40;;;;;;;5.20;4.70;;;;;;;;;;5072897;28;20488;-57
2021/07/18 11:52:09;;;;;;;5.47;4.90;;;;;;;;;;5072681;28;20448;-56
2021/07/18 11:54:36;;;;;;;5.93;5.43;;;;;;;;;;5072698;28;20999;-57
2021/07/18 11:57:06;;;;;;;5.20;4.80;;;;;;;;;;5072604;28;20475;-57
2021/07/18 11:59:34;;;;;;;6.00;5.50;;;;;;;;;;5072639;28;20465;-57
2021/07/18 12:02:02;;;;;;;5.50;4.87;;;;;;;;;;5072885;28;20449;-57
2021/07/18 12:04:30;;;;;;;5.20;4.80;;;;;;;;;;5072860;28;20446;-58
2021/07/18 12:06:58;;;;;;;5.17;4.77;;;;;;;;;;5072349;28;20456;-57
2021/07/18 12:09:26;;;;;;;6.10;5.60;;;;;;;;;;5072359;28;20476;-57
2021/07/18 12:11:54;;;;;;;5.10;4.60;;;;;;;;;;5072767;28;20473;-57
2021/07/18 12:14:22;;;;;;;6.00;4.60;;;;;;;;;;5072970;28;20443;-57
2021/07/18 12:16:52;;;;;;;5.13;4.60;;;;;;;;;;5072705;28;20550;-57
2021/07/18 12:19:23;;;;;;;4.93;4.53;;;;;;;;;;5072483;28;20447;-57
2021/07/18 12:21:50;;;;;;;5.80;4.37;;;;;;;;;;5074076;28;20497;-58
2021/07/18 12:24:22;;;;;;;4.87;4.47;;;;;;;;;;5072582;28;20452;-57
2021/07/18 12:26:51;;;;;;;4.20;3.80;;;;;;;;;;5072600;28;20505;-57
2021/07/18 12:29:19;;;;;;;5.53;4.20;;;;;;;;;;5074696;28;20533;-58
2021/07/18 12:31:47;;;;;;;4.10;3.60;;;;;;;;;;5076254;28;20444;-58
2021/07/18 12:34:15;;;;;;;5.23;3.90;;;;;;;;;;5076292;28;20452;-56
2021/07/18 12:36:57;;;;;;;5.13;4.20;;;;;;;;;;5076337;28;20502;-57
2021/07/18 12:39:27;;;;;;;5.27;4.77;;;;;;;;;;5076739;28;20461;-58
2021/07/18 12:41:54;;;;;;;4.63;3.73;;;;;;;;;;5076060;28;20449;-58
2021/07/18 12:44:22;;;;;;;4.60;3.60;;;;;;;;;;5076218;28;20934;-61
2021/07/18 12:46:50;;;;;;;5.10;3.90;;;;;;;;;;5076382;28;20499;-58
2021/07/18 12:49:18;;;;;;;3.70;3.40;;;;;;;;;;5076135;28;20482;-58
2021/07/18 12:51:45;;;;;;;6.47;4.33;;;;;;;;;;5077059;28;20452;-57
2021/07/18 12:54:15;;;;;;;4.77;3.47;;;;;;;;;;5076138;28;20513;-57
2021/07/18 12:56:42;;;;;;;4.30;3.90;;;;;;;;;;5076248;28;20475;-57
2021/07/18 12:59:10;;;;;;;4.20;3.80;;;;;;;;;;5075593;28;20455;-57
2021/07/18 13:01:38;;;;;;;6.60;4.43;;;;;;;;;;5076142;28;20447;-57
2021/07/18 13:04:07;;;;;;;4.30;4.00;;;;;;;;;;5076385;28;20883;-57
2021/07/18 13:06:41;;;;;;;6.37;4.00;;;;;;;;;;5075451;28;20465;-58
2021/07/18 13:09:21;;;;;;;4.60;3.67;;;;;;;;;;5075649;28;20577;-58
2021/07/18 13:11:52;;;;;;;4.47;3.40;;;;;;;;;;5075907;28;20434;-57
2021/07/18 13:14:20;;;;;;;3.97;3.57;;;;;;;;;;5075561;28;20504;-58
2021/07/18 13:16:48;;;;;;;5.17;3.40;;;;;;;;;;5075338;28;20454;-57
2021/07/18 13:19:17;;;;;;;6.27;3.40;;;;;;;;;;5075418;28;20985;-58
2021/07/18 13:21:45;;;;;;;3.67;3.33;;;;;;;;;;5075532;28;20551;-58
2021/07/18 13:24:23;;;;;;;4.43;3.37;;;;;;;;;;5075346;28;20506;-57
2021/07/18 13:26:52;;;;;;;4.03;3.43;;;;;;;;;;5075663;28;20434;-57
2021/07/18 13:29:20;;;;;;;6.97;3.50;;;;;;;;;;5075162;28;20478;-56
2021/07/18 13:31:49;;;;;;;3.60;3.20;;;;;;;;;;5075348;28;20450;-57
2021/07/18 13:34:16;;;;;;;3.40;2.80;;;;;;;;;;5075103;28;20814;-57
2021/07/18 13:36:44;;;;;;;5.87;4.00;;;;;;;;;;5074909;28;20743;-56
2021/07/18 13:39:12;;;;;;;4.03;3.30;;;;;;;;;;5074644;28;20447;-57
2021/07/18 13:41:40;;;;;;;6.63;3.30;;;;;;;;;;5074857;28;20918;-57
2021/07/18 13:44:09;;;;;;;5.57;3.43;;;;;;;;;;5074959;28;20450;-57
2021/07/18 13:46:37;;;;;;;4.57;3.40;;;;;;;;;;5075204;28;20485;-57
2021/07/18 13:49:04;;;;;;;3.80;3.40;;;;;;;;;;5074863;28;20856;-57
2021/07/18 13:51:32;;;;;;;3.73;3.00;;;;;;;;;;5074749;28;20450;-57
2021/07/18 13:53:59;;;;;;;4.13;3.33;;;;;;;;;;5075095;28;20568;-56
2021/07/18 13:56:27;;;;;;;3.83;3.53;;;;;;;;;;5075101;28;20480;-57
2021/07/18 13:58:54;;;;;;;4.03;3.57;;;;;;;;;;5075090;28;20519;-55
2021/07/18 14:01:23;;;;;;;3.70;3.40;;;;;;;;;;5074956;28;20466;-56
2021/07/18 14:03:50;;;;;;;3.07;2.70;;;;;;;;;;5074742;28;20450;-57
2021/07/18 14:06:17;;;;;;;6.53;3.30;;;;;;;;;;5074787;28;20892;-57
2021/07/18 14:08:45;;;;;;;3.40;3.10;;;;;;;;;;5074735;28;20434;-57
2021/07/18 14:11:12;;;;;;;3.50;3.20;;;;;;;;;;5074478;28;20907;-57
2021/07/18 14:13:39;;;;;;;3.43;3.13;;;;;;;;;;5074790;28;20924;-56
2021/07/18 14:16:06;;;;;;;3.80;3.37;;;;;;;;;;5074488;28;20446;-56
2021/07/18 14:18:35;;;;;;;6.30;3.40;;;;;;;;;;5074760;28;20436;-57
2021/07/18 14:21:02;;;;;;;3.93;3.17;;;;;;;;;;5074526;28;20465;-57
2021/07/18 14:23:30;;;;;;;3.60;2.80;;;;;;;;;;5074608;28;20450;-57
2021/07/18 14:25:59;;;;;;;4.10;2.47;;;;;;;;;;5074694;28;20457;-58
2021/07/18 14:28:26;;;;;;;3.20;2.43;;;;;;;;;;5074489;28;20557;-57
2021/07/18 14:30:54;;;;;;;5.23;3.07;;;;;;;;;;5074263;28;20488;-57
2021/07/18 14:33:21;;;;;;;4.60;2.97;;;;;;;;;;5074516;28;20510;-57
2021/07/18 14:35:50;;;;;;;4.10;3.03;;;;;;;;;;5074449;28;20516;-57
2021/07/18 14:38:18;;;;;;;4.50;2.70;;;;;;;;;;5074350;28;20493;-57
2021/07/18 14:40:45;;;;;;;7.50;2.53;;;;;;;;;;5074139;28;20459;-58
2021/07/18 14:43:13;;;;;;;7.07;3.03;;;;;;;;;;5074197;28;20498;-57
2021/07/18 14:45:41;;;;;;;5.70;3.60;;;;;;;;;;5074130;28;20440;-57